createdAt,value
2019-03-19T00:00:29.644Z,24.13
2019-03-19T00:02:58.089Z,13.10
2019-03-19T00:05:26.515Z,20.33
2019-03-19T00:07:55.195Z,20.60
2019-03-19T00:10:23.678Z,18.03
2019-03-19T00:12:52.099Z,18.63
2019-03-19T00:15:20.524Z,14.23
2019-03-19T00:17:48.969Z,23.30
2019-03-19T00:20:17.409Z,19.57
2019-03-19T00:22:45.874Z,18.33
2019-03-19T00:25:14.386Z,12.67
2019-03-19T00:27:42.813Z,11.93
2019-03-19T00:30:13.598Z,14.00
2019-03-19T00:32:42.025Z,17.47
2019-03-19T00:35:10.544Z,20.43
2019-03-19T00:37:39.045Z,19.03
2019-03-19T00:40:09.826Z,19.77
2019-03-19T00:42:38.250Z,21.83
2019-03-19T00:45:09.747Z,15.77
2019-03-19T00:47:38.249Z,25.20
2019-03-19T00:50:09.195Z,17.53
2019-03-19T00:52:37.636Z,10.47
2019-03-19T00:55:07.355Z,20.00
2019-03-19T00:57:35.801Z,18.07
2019-03-19T01:00:07.449Z,17.87
2019-03-19T01:02:35.913Z,17.73
2019-03-19T01:05:05.330Z,19.57
2019-03-19T01:07:33.752Z,14.77
2019-03-19T01:10:02.189Z,16.83
2019-03-19T01:12:30.866Z,16.47
2019-03-19T01:14:59.321Z,13.43
2019-03-19T01:17:27.766Z,23.23
2019-03-19T01:19:56.181Z,18.03
2019-03-19T01:22:24.620Z,16.70
2019-03-19T01:24:53.070Z,20.77
2019-03-19T01:27:21.561Z,16.63
2019-03-19T01:29:50.007Z,17.47
2019-03-19T01:32:18.429Z,19.53
2019-03-19T01:34:46.926Z,19.30
2019-03-19T01:37:15.389Z,21.20
2019-03-19T01:39:43.844Z,15.00
2019-03-19T01:42:12.267Z,15.80
2019-03-19T01:44:40.693Z,16.17
2019-03-19T01:47:09.133Z,20.93
2019-03-19T01:49:37.582Z,15.43
2019-03-19T01:52:06.263Z,16.50
2019-03-19T01:54:34.787Z,20.83
2019-03-19T01:57:03.210Z,14.23
2019-03-19T01:59:31.635Z,15.50
2019-03-19T02:02:00.155Z,15.00
2019-03-19T02:04:28.823Z,22.47
2019-03-19T02:06:57.244Z,15.00
2019-03-19T02:09:25.688Z,16.40
2019-03-19T02:11:54.107Z,13.43
2019-03-19T02:14:22.556Z,10.30
2019-03-19T02:16:50.978Z,16.73
2019-03-19T02:19:19.679Z,13.60
2019-03-19T02:21:48.102Z,18.00
2019-03-19T02:24:16.545Z,10.37
2019-03-19T02:26:44.974Z,17.90
2019-03-19T02:29:13.427Z,14.70
2019-03-19T02:31:42.103Z,18.57
2019-03-19T02:34:10.555Z,18.43
2019-03-19T02:36:38.988Z,25.37
2019-03-19T02:39:07.768Z,19.57
2019-03-19T02:41:36.295Z,21.93
2019-03-19T02:44:04.793Z,18.90
2019-03-19T02:46:33.233Z,18.03
2019-03-19T02:49:01.908Z,22.23
2019-03-19T02:51:30.356Z,15.20
2019-03-19T02:53:58.790Z,16.17
2019-03-19T02:56:33.246Z,18.57
2019-03-19T02:58:57.634Z,19.03
2019-03-19T03:01:26.075Z,12.63
2019-03-19T03:03:54.513Z,16.67
2019-03-19T03:06:22.935Z,20.17
2019-03-19T03:08:51.638Z,16.40
2019-03-19T03:11:20.083Z,14.93
2019-03-19T03:13:48.776Z,21.80
2019-03-19T03:16:17.203Z,19.97
2019-03-19T03:18:45.665Z,18.57
2019-03-19T03:21:14.083Z,18.50
2019-03-19T03:23:42.839Z,17.17
2019-03-19T03:26:11.285Z,18.77
2019-03-19T03:28:39.739Z,15.43
2019-03-19T03:31:08.306Z,19.43
2019-03-19T03:33:36.754Z,15.57
2019-03-19T03:36:05.270Z,16.00
2019-03-19T03:38:33.689Z,21.37
2019-03-19T03:41:02.155Z,15.73
2019-03-19T03:43:30.640Z,15.23
2019-03-19T03:45:59.345Z,14.67
2019-03-19T03:48:27.767Z,19.80
2019-03-19T03:50:56.215Z,14.60
2019-03-19T03:53:24.698Z,18.00
2019-03-19T03:55:53.431Z,13.77
2019-03-19T03:58:21.857Z,13.27
2019-03-19T04:00:50.384Z,17.70
2019-03-19T04:03:18.833Z,17.73
2019-03-19T04:05:47.269Z,19.13
2019-03-19T04:08:15.781Z,20.30
2019-03-19T04:10:44.249Z,17.10
2019-03-19T04:13:12.736Z,19.03
2019-03-19T04:15:41.158Z,15.33
2019-03-19T04:18:09.603Z,15.20
2019-03-19T04:20:38.028Z,17.47
2019-03-19T04:23:06.723Z,15.83
2019-03-19T04:25:35.137Z,20.10
2019-03-19T04:28:03.661Z,16.67
2019-03-19T04:30:32.077Z,15.27
2019-03-19T04:33:00.507Z,14.53
2019-03-19T04:35:29.204Z,19.93
2019-03-19T04:37:57.634Z,18.87
2019-03-19T04:40:26.093Z,15.13
2019-03-19T04:42:54.762Z,18.33
2019-03-19T04:45:23.434Z,22.77
2019-03-19T04:47:51.873Z,19.97
2019-03-19T04:50:20.321Z,16.40
2019-03-19T04:52:48.737Z,20.17
2019-03-19T04:55:17.569Z,16.37
2019-03-19T04:57:46.002Z,16.47
2019-03-19T05:00:20.577Z,17.27
2019-03-19T05:02:49.003Z,16.43
2019-03-19T05:05:17.446Z,17.23
2019-03-19T05:07:45.869Z,18.60
2019-03-19T05:10:17.960Z,13.77
2019-03-19T05:12:46.377Z,11.80
2019-03-19T05:15:14.808Z,19.43
2019-03-19T05:17:43.241Z,17.47
2019-03-19T05:20:13.584Z,18.03
2019-03-19T05:22:42.018Z,18.90
2019-03-19T05:25:11.396Z,13.83
2019-03-19T05:27:39.915Z,9.80
2019-03-19T05:30:16.249Z,15.27
2019-03-19T05:32:44.949Z,14.37
2019-03-19T05:35:13.374Z,13.20
2019-03-19T05:37:41.814Z,12.37
2019-03-19T05:40:13.981Z,13.27
2019-03-19T05:42:42.438Z,14.90
2019-03-19T05:45:12.875Z,13.70
2019-03-19T05:47:41.329Z,15.37
2019-03-19T05:50:13.994Z,17.07
2019-03-19T05:52:42.690Z,14.50
2019-03-19T05:55:11.486Z,12.53
2019-03-19T05:57:48.868Z,13.50
2019-03-19T06:00:14.941Z,24.27
2019-03-19T06:02:43.387Z,16.30
2019-03-19T06:05:12.345Z,17.93
2019-03-19T06:07:40.800Z,17.57
2019-03-19T06:10:10.887Z,15.47
2019-03-19T06:12:39.309Z,19.17
2019-03-19T06:15:10.285Z,22.37
2019-03-19T06:17:38.723Z,21.43
2019-03-19T06:20:12.448Z,19.87
2019-03-19T06:22:40.871Z,20.80
2019-03-19T06:25:10.654Z,19.53
2019-03-19T06:27:39.079Z,15.93
2019-03-19T06:30:24.687Z,21.57
2019-03-19T06:32:53.208Z,14.37
2019-03-19T06:35:21.913Z,18.90
2019-03-19T06:37:50.583Z,22.00
2019-03-19T06:40:21.083Z,22.90
2019-03-19T06:42:49.489Z,17.27
2019-03-19T06:45:18.979Z,15.50
2019-03-19T06:47:47.556Z,14.63
2019-03-19T06:50:16.749Z,18.47
2019-03-19T06:52:45.347Z,15.03
2019-03-19T06:55:14.706Z,17.63
2019-03-19T06:57:43.212Z,12.03
2019-03-19T07:00:21.703Z,19.10
2019-03-19T07:02:50.132Z,11.93
2019-03-19T07:05:20.386Z,15.57
2019-03-19T07:07:48.848Z,12.50
2019-03-19T07:10:18.122Z,15.53
2019-03-19T07:12:46.552Z,23.03
2019-03-19T07:15:18.097Z,17.33
2019-03-19T07:17:46.607Z,14.77
2019-03-19T07:20:16.446Z,15.70
2019-03-19T07:22:44.869Z,14.77
2019-03-19T07:25:13.513Z,17.97
2019-03-19T07:27:41.932Z,14.30
2019-03-19T07:30:13.369Z,14.57
2019-03-19T07:32:41.813Z,23.43
2019-03-19T07:35:10.237Z,14.80
2019-03-19T07:37:38.690Z,16.63
2019-03-19T07:40:09.954Z,20.60
2019-03-19T07:42:38.411Z,14.50
2019-03-19T07:45:15.445Z,16.87
2019-03-19T07:47:44.146Z,13.87
2019-03-19T07:50:14.705Z,17.87
2019-03-19T07:52:43.137Z,15.10
2019-03-19T07:55:11.930Z,15.50
2019-03-19T07:57:40.394Z,16.20
2019-03-19T08:00:14.532Z,11.10
2019-03-19T08:02:42.954Z,13.30
2019-03-19T08:05:11.634Z,12.50
2019-03-19T08:07:40.059Z,11.33
2019-03-19T08:10:10.349Z,16.90
2019-03-19T08:12:38.858Z,18.27
2019-03-19T08:15:10.399Z,5.40
2019-03-19T08:17:38.869Z,6.63
2019-03-19T08:20:14.459Z,11.20
2019-03-19T08:22:42.917Z,15.17
2019-03-19T08:25:12.358Z,5.10
2019-03-19T08:27:41.090Z,6.60
2019-03-19T08:30:12.609Z,12.53
2019-03-19T08:32:41.051Z,15.43
2019-03-19T08:35:09.573Z,10.37
2019-03-19T08:37:38.031Z,10.80
2019-03-19T08:40:14.265Z,10.50
2019-03-19T08:42:42.946Z,15.53
2019-03-19T08:45:17.166Z,14.67
2019-03-19T08:47:45.625Z,8.47
2019-03-19T08:50:17.876Z,9.43
2019-03-19T08:52:46.346Z,11.97
2019-03-19T08:55:14.797Z,12.10
2019-03-19T08:57:43.292Z,10.83
2019-03-19T09:00:25.217Z,7.00
2019-03-19T09:02:53.664Z,14.17
2019-03-19T09:05:22.333Z,14.97
2019-03-19T09:07:51.038Z,12.17
2019-03-19T09:10:20.218Z,9.90
2019-03-19T09:12:49.098Z,15.60
2019-03-19T09:15:21.909Z,14.97
2019-03-19T09:17:50.366Z,12.00
2019-03-19T09:20:19.074Z,11.27
2019-03-19T09:22:47.515Z,8.17
2019-03-19T09:25:16.282Z,16.50
2019-03-19T09:27:44.743Z,16.47
2019-03-19T09:30:20.291Z,14.67
2019-03-19T09:32:48.743Z,10.23
2019-03-19T09:35:17.430Z,4.83
2019-03-19T09:37:57.267Z,4.03
2019-03-19T09:40:20.159Z,6.37
2019-03-19T09:42:48.597Z,3.57
2019-03-19T09:45:17.977Z,9.60
2019-03-19T09:47:46.870Z,5.03
2019-03-19T09:50:16.915Z,11.00
2019-03-19T09:52:45.426Z,9.60
2019-03-19T09:55:14.325Z,13.43
2019-03-19T09:57:42.829Z,9.90
2019-03-19T10:00:19.227Z,4.70
2019-03-19T10:02:47.673Z,7.43
2019-03-19T10:05:16.105Z,5.67
2019-03-19T10:07:44.528Z,8.13
2019-03-19T10:10:20.868Z,9.87
2019-03-19T10:12:49.310Z,6.33
2019-03-19T10:15:18.003Z,5.70
2019-03-19T10:17:46.442Z,3.97
2019-03-19T10:20:20.600Z,9.40
2019-03-19T10:22:49.357Z,5.03
2019-03-19T10:25:17.794Z,6.70
2019-03-19T10:27:46.223Z,7.17
2019-03-19T10:30:21.574Z,6.73
2019-03-19T10:32:50.009Z,3.70
2019-03-19T10:35:18.527Z,11.50
2019-03-19T10:37:46.952Z,5.47
2019-03-19T10:40:17.328Z,6.97
2019-03-19T10:42:45.750Z,8.90
2019-03-19T10:45:24.808Z,9.60
2019-03-19T10:47:53.301Z,8.33
2019-03-19T10:50:28.074Z,4.80
2019-03-19T10:52:56.507Z,4.17
2019-03-19T10:55:24.943Z,8.47
2019-03-19T10:57:53.708Z,10.73
2019-03-19T11:00:25.775Z,12.57
2019-03-19T11:02:54.453Z,10.13
2019-03-19T11:05:23.543Z,4.13
2019-03-19T11:07:52.610Z,4.27
2019-03-19T11:10:21.198Z,5.63
2019-03-19T11:12:49.709Z,5.03
2019-03-19T11:15:25.397Z,3.87
2019-03-19T11:17:53.822Z,2.73
2019-03-19T11:20:22.270Z,4.40
2019-03-19T11:22:50.761Z,7.20
2019-03-19T11:25:24.117Z,5.00
2019-03-19T11:27:52.889Z,7.87
2019-03-19T11:30:24.409Z,2.37
2019-03-19T11:32:52.866Z,8.57
2019-03-19T11:35:21.426Z,3.17
2019-03-19T11:37:49.950Z,8.97
2019-03-19T11:40:19.140Z,9.60
2019-03-19T11:42:47.998Z,5.17
2019-03-19T11:45:19.211Z,9.50
2019-03-19T11:47:47.665Z,7.53
2019-03-19T11:50:21.333Z,7.73
2019-03-19T11:52:49.916Z,8.27
2019-03-19T11:55:18.521Z,6.93
2019-03-19T11:57:46.978Z,9.37
2019-03-19T12:00:29.709Z,7.10
2019-03-19T12:02:58.502Z,5.17
2019-03-19T12:05:26.950Z,10.43
2019-03-19T12:07:55.369Z,5.33
2019-03-19T12:10:23.855Z,4.83
2019-03-19T12:12:52.299Z,7.97
2019-03-19T12:15:20.748Z,8.97
2019-03-19T12:17:49.202Z,10.00
2019-03-19T12:20:17.645Z,7.23
2019-03-19T12:22:46.085Z,4.13
2019-03-19T12:25:14.616Z,4.50
2019-03-19T12:27:43.034Z,4.73
2019-03-19T12:30:22.335Z,7.43
2019-03-19T12:32:46.687Z,5.10
2019-03-19T12:35:16.150Z,11.40
2019-03-19T12:37:44.593Z,6.73
2019-03-19T12:40:23.745Z,12.27
2019-03-19T12:42:52.164Z,7.80
2019-03-19T12:45:24.507Z,9.97
2019-03-19T12:47:53.303Z,8.93
2019-03-19T12:50:22.969Z,10.73
2019-03-19T12:52:51.653Z,7.93
2019-03-19T12:55:20.158Z,6.70
2019-03-19T12:57:48.858Z,10.80
2019-03-19T13:00:33.010Z,9.87
2019-03-19T13:02:52.585Z,9.97
2019-03-19T13:05:22.562Z,6.93
2019-03-19T13:07:51.249Z,8.13
2019-03-19T13:10:26.878Z,6.27
2019-03-19T13:12:55.301Z,7.33
2019-03-19T13:15:23.737Z,7.10
2019-03-19T13:17:52.185Z,9.33
2019-03-19T13:20:21.922Z,6.00
2019-03-19T13:22:50.357Z,9.63
2019-03-19T13:25:24.962Z,8.10
2019-03-19T13:27:53.493Z,7.50
2019-03-19T13:30:29.853Z,8.97
2019-03-19T13:32:58.578Z,8.77
2019-03-19T13:35:26.994Z,7.30
2019-03-19T13:37:55.422Z,8.77
2019-03-19T13:40:24.132Z,7.97
2019-03-19T13:42:52.561Z,12.33
2019-03-19T13:45:22.342Z,8.17
2019-03-19T13:47:50.856Z,11.10
2019-03-19T13:50:23.205Z,12.60
2019-03-19T13:52:51.649Z,8.23
2019-03-19T13:55:22.286Z,6.57
2019-03-19T13:57:50.861Z,6.17
2019-03-19T14:00:19.830Z,8.77
2019-03-19T14:02:48.270Z,8.80
2019-03-19T14:05:17.237Z,9.50
2019-03-19T14:07:45.766Z,9.57
2019-03-19T14:10:19.029Z,9.47
2019-03-19T14:12:47.644Z,7.27
2019-03-19T14:15:26.096Z,5.90
2019-03-19T14:17:54.571Z,13.20
2019-03-19T14:20:23.060Z,8.57
2019-03-19T14:22:51.746Z,6.13
2019-03-19T14:25:20.186Z,9.47
2019-03-19T14:27:48.627Z,8.13
2019-03-19T14:30:18.439Z,7.53
2019-03-19T14:32:46.890Z,9.23
2019-03-19T14:35:15.704Z,7.70
2019-03-19T14:37:44.403Z,9.30
2019-03-19T14:40:15.267Z,9.47
2019-03-19T14:42:43.785Z,9.07
2019-03-19T14:45:12.375Z,11.07
2019-03-19T14:47:40.793Z,8.47
2019-03-19T14:50:14.390Z,11.07
2019-03-19T14:52:43.934Z,9.87
2019-03-19T14:55:12.716Z,9.33
2019-03-19T14:57:41.229Z,10.53
2019-03-19T15:00:15.349Z,8.43
2019-03-19T15:02:44.033Z,7.17
2019-03-19T15:05:14.359Z,6.83
2019-03-19T15:07:42.886Z,14.63
2019-03-19T15:10:16.893Z,9.90
2019-03-19T15:12:45.336Z,10.20
2019-03-19T15:15:17.314Z,9.47
2019-03-19T15:17:45.889Z,8.87
2019-03-19T15:20:16.506Z,9.57
2019-03-19T15:22:45.154Z,7.43
2019-03-19T15:25:13.581Z,7.27
2019-03-19T15:27:42.033Z,5.47
2019-03-19T15:30:18.659Z,6.63
2019-03-19T15:32:48.149Z,9.70
2019-03-19T15:35:16.636Z,8.67
2019-03-19T15:37:45.121Z,6.97
2019-03-19T15:40:20.877Z,10.57
2019-03-19T15:42:49.309Z,6.30
2019-03-19T15:45:19.493Z,5.70
2019-03-19T15:47:47.921Z,7.50
2019-03-19T15:50:16.857Z,7.67
2019-03-19T15:52:45.345Z,9.33
2019-03-19T15:55:15.749Z,6.93
2019-03-19T15:57:44.239Z,7.27
2019-03-19T16:00:20.846Z,5.10
2019-03-19T16:02:49.271Z,11.53
2019-03-19T16:05:18.242Z,9.57
2019-03-19T16:07:46.693Z,8.90
2019-03-19T16:10:17.036Z,7.07
2019-03-19T16:12:45.481Z,8.87
2019-03-19T16:15:19.510Z,6.30
2019-03-19T16:17:48.026Z,6.53
2019-03-19T16:20:17.183Z,8.03
2019-03-19T16:22:45.606Z,7.37
2019-03-19T16:25:14.121Z,7.77
2019-03-19T16:27:42.560Z,10.47
2019-03-19T16:30:18.297Z,6.37
2019-03-19T16:32:46.761Z,9.27
2019-03-19T16:35:15.283Z,7.73
2019-03-19T16:37:43.775Z,7.53
2019-03-19T16:40:20.101Z,10.33
2019-03-19T16:42:48.554Z,12.10
2019-03-19T16:45:18.324Z,10.67
2019-03-19T16:47:47.364Z,9.53
2019-03-19T16:50:17.688Z,11.33
2019-03-19T16:52:46.161Z,6.73
2019-03-19T16:55:18.437Z,5.47
2019-03-19T16:57:46.893Z,7.13
2019-03-19T17:00:28.912Z,7.53
2019-03-19T17:02:57.645Z,7.77
2019-03-19T17:05:26.394Z,5.67
2019-03-19T17:07:54.857Z,9.13
2019-03-19T17:10:30.525Z,10.17
2019-03-19T17:12:59.294Z,7.77
2019-03-19T17:15:27.781Z,9.07
2019-03-19T17:17:56.241Z,7.20
2019-03-19T17:20:24.998Z,10.60
2019-03-19T17:22:53.449Z,6.43
2019-03-19T17:25:26.627Z,9.90
2019-03-19T17:27:55.326Z,9.07
2019-03-19T17:30:28.005Z,7.67
2019-03-19T17:32:56.450Z,9.53
2019-03-19T17:35:24.870Z,7.93
2019-03-19T17:37:53.647Z,6.43
2019-03-19T17:40:22.153Z,8.37
2019-03-19T17:42:50.627Z,12.33
2019-03-19T17:45:19.322Z,12.90
2019-03-19T17:47:47.783Z,11.07
2019-03-19T17:50:18.855Z,8.93
2019-03-19T17:52:49.449Z,7.00
2019-03-19T17:55:18.226Z,8.17
2019-03-19T17:57:46.655Z,10.83
2019-03-19T18:00:18.373Z,8.23
2019-03-19T18:02:47.064Z,6.43
2019-03-19T18:05:15.765Z,9.97
2019-03-19T18:07:44.196Z,7.93
2019-03-19T18:10:13.924Z,15.40
2019-03-19T18:12:42.363Z,9.13
2019-03-19T18:15:12.553Z,10.67
2019-03-19T18:17:41.021Z,9.50
2019-03-19T18:20:11.701Z,7.67
2019-03-19T18:22:40.407Z,7.70
2019-03-19T18:25:16.725Z,8.93
2019-03-19T18:27:45.204Z,15.00
2019-03-19T18:30:16.000Z,7.30
2019-03-19T18:32:44.966Z,7.00
2019-03-19T18:35:13.566Z,8.73
2019-03-19T18:37:42.079Z,10.10
2019-03-19T18:40:12.548Z,10.40
2019-03-19T18:42:41.030Z,7.53
2019-03-19T18:45:12.782Z,10.57
2019-03-19T18:47:41.210Z,10.50
2019-03-19T18:50:14.702Z,10.27
2019-03-19T18:52:43.389Z,8.73
2019-03-19T18:55:11.891Z,12.23
2019-03-19T18:57:41.576Z,11.30
2019-03-19T19:00:17.042Z,8.57
2019-03-19T19:02:50.257Z,15.17
2019-03-19T19:05:26.690Z,12.07
2019-03-19T19:07:57.049Z,9.93
2019-03-19T19:10:25.492Z,7.53
2019-03-19T19:12:53.951Z,8.07
2019-03-19T19:15:25.813Z,13.60
2019-03-19T19:17:54.329Z,11.77
2019-03-19T19:20:22.781Z,12.03
2019-03-19T19:22:51.208Z,10.00
2019-03-19T19:25:20.991Z,12.20
2019-03-19T19:27:49.413Z,9.90
2019-03-19T19:30:23.680Z,9.53
2019-03-19T19:33:01.040Z,10.03
2019-03-19T19:35:22.281Z,9.83
2019-03-19T19:37:50.961Z,11.53
2019-03-19T19:40:19.479Z,10.97
2019-03-19T19:42:47.921Z,11.03
2019-03-19T19:45:17.316Z,15.80
2019-03-19T19:47:45.752Z,13.10
2019-03-19T19:50:15.602Z,15.80
2019-03-19T19:52:44.016Z,9.30
2019-03-19T19:55:14.556Z,10.93
2019-03-19T19:57:43.241Z,8.93
2019-03-19T20:00:16.358Z,12.90
2019-03-19T20:02:45.125Z,10.50
2019-03-19T20:05:13.651Z,15.70
2019-03-19T20:07:42.071Z,13.70
2019-03-19T20:10:19.028Z,13.30
2019-03-19T20:12:47.466Z,17.57
2019-03-19T20:15:15.899Z,8.23
2019-03-19T20:17:44.325Z,17.93
2019-03-19T20:20:20.061Z,36.80
2019-03-19T20:22:48.519Z,27.77
2019-03-19T20:25:16.936Z,17.50
2019-03-19T20:27:45.381Z,12.97
2019-03-19T20:30:18.927Z,10.27
2019-03-19T20:32:47.382Z,14.23
2019-03-19T20:35:16.100Z,12.33
2019-03-19T20:37:44.680Z,10.53
2019-03-19T20:40:14.240Z,13.83
2019-03-19T20:42:42.941Z,12.17
2019-03-19T20:45:19.997Z,11.20
2019-03-19T20:47:48.441Z,13.53
2019-03-19T20:50:31.361Z,15.67
2019-03-19T20:52:59.807Z,10.40
2019-03-19T20:55:28.232Z,15.77
2019-03-19T20:57:56.681Z,17.23
2019-03-19T21:00:25.206Z,10.10
2019-03-19T21:02:53.653Z,12.13
2019-03-19T21:05:22.094Z,14.30
2019-03-19T21:07:50.554Z,14.63
2019-03-19T21:10:24.703Z,12.10
2019-03-19T21:12:53.474Z,19.37
2019-03-19T21:15:28.877Z,11.33
2019-03-19T21:17:57.514Z,17.13
2019-03-19T21:20:25.953Z,16.53
2019-03-19T21:22:54.624Z,15.97
2019-03-19T21:25:23.082Z,12.40
2019-03-19T21:27:51.768Z,10.87
2019-03-19T21:30:21.329Z,14.70
2019-03-19T21:32:49.777Z,16.80
2019-03-19T21:35:22.902Z,15.70
2019-03-19T21:37:51.340Z,12.67
2019-03-19T21:40:19.777Z,15.20
2019-03-19T21:42:48.477Z,13.77
2019-03-19T21:45:19.208Z,13.47
2019-03-19T21:47:47.653Z,18.73
2019-03-19T21:50:21.196Z,12.43
2019-03-19T21:52:49.686Z,15.10
2019-03-19T21:55:18.190Z,12.60
2019-03-19T21:57:46.901Z,17.50
2019-03-19T22:00:22.517Z,15.00
2019-03-19T22:02:51.206Z,13.80
2019-03-19T22:05:19.641Z,19.80
2019-03-19T22:07:48.094Z,17.73
2019-03-19T22:10:18.557Z,14.87
2019-03-19T22:12:49.135Z,16.43
2019-03-19T22:15:24.846Z,13.07
2019-03-19T22:17:53.279Z,17.13
2019-03-19T22:20:21.859Z,18.30
2019-03-19T22:22:50.312Z,20.97
2019-03-19T22:25:18.748Z,18.60
2019-03-19T22:27:47.177Z,17.43
2019-03-19T22:30:22.064Z,14.23
2019-03-19T22:32:50.583Z,17.93
2019-03-19T22:35:19.015Z,20.13
2019-03-19T22:37:47.434Z,16.33
2019-03-19T22:40:19.154Z,15.20
2019-03-19T22:42:47.898Z,18.30
2019-03-19T22:45:17.410Z,18.17
2019-03-19T22:47:46.859Z,18.40
2019-03-19T22:50:18.825Z,15.80
2019-03-19T22:52:47.319Z,17.53
2019-03-19T22:55:16.317Z,21.20
2019-03-19T22:57:45.107Z,17.57
2019-03-19T23:00:28.922Z,16.60
2019-03-19T23:02:57.365Z,15.47
2019-03-19T23:05:25.798Z,16.73
2019-03-19T23:07:54.242Z,16.53
2019-03-19T23:10:22.685Z,13.50
2019-03-19T23:12:51.205Z,15.30
2019-03-19T23:15:19.634Z,15.00
2019-03-19T23:17:48.061Z,17.73
2019-03-19T23:20:16.536Z,15.73
2019-03-19T23:22:45.000Z,13.77
2019-03-19T23:25:13.585Z,17.33
2019-03-19T23:27:42.303Z,13.60
2019-03-19T23:30:13.862Z,16.63
2019-03-19T23:32:42.677Z,11.50
2019-03-19T23:35:11.418Z,19.33
2019-03-19T23:37:39.862Z,15.47
2019-03-19T23:40:10.992Z,15.30
2019-03-19T23:42:39.513Z,15.03
2019-03-19T23:45:10.203Z,14.07
2019-03-19T23:47:38.889Z,21.37
2019-03-19T23:50:10.447Z,11.23
2019-03-19T23:52:38.893Z,17.27
2019-03-19T23:55:08.253Z,11.33
2019-03-19T23:57:36.710Z,12.57
